createdAt,value
2023-01-20T00:03:22.756Z,99850.88
2023-01-20T00:08:25.511Z,99845.41
2023-01-20T00:13:28.230Z,99853.84
2023-01-20T00:18:33.350Z,99865.56
2023-01-20T00:23:36.202Z,99866.16
2023-01-20T00:28:39.032Z,99874.09
2023-01-20T00:33:43.724Z,99888.50
2023-01-20T00:38:46.851Z,99883.22
2023-01-20T00:43:49.959Z,99881.78
2023-01-20T00:48:54.286Z,99893.31
2023-01-20T00:53:57.631Z,99897.59
2023-01-20T00:59:00.392Z,99891.66
2023-01-20T01:04:04.541Z,99898.94
2023-01-20T01:09:07.410Z,99891.53
2023-01-20T01:14:10.572Z,99898.03
2023-01-20T01:19:14.701Z,99912.88
2023-01-20T01:24:17.473Z,99908.53
2023-01-20T01:29:20.229Z,99922.91
2023-01-20T01:34:24.646Z,99929.44
2023-01-20T01:39:28.581Z,99937.84
2023-01-20T01:44:32.862Z,99937.16
2023-01-20T01:49:37.041Z,99935.38
2023-01-20T01:54:45.488Z,99940.75
2023-01-20T01:59:48.286Z,99944.38
2023-01-20T02:04:52.452Z,99947.03
2023-01-20T02:09:55.337Z,99946.09
2023-01-20T02:15:00.685Z,99948.38
2023-01-20T02:20:25.960Z,99952.75
2023-01-20T02:25:45.660Z,99972.47
2023-01-20T02:31:20.039Z,99972.88
2023-01-20T02:36:30.366Z,99981.75
2023-01-20T02:41:39.892Z,99980.91
2023-01-20T02:46:52.686Z,99988.53
2023-01-20T02:52:02.900Z,99989.03
2023-01-20T02:57:09.572Z,99987.41
2023-01-20T03:02:16.295Z,99986.34
2023-01-20T03:07:24.386Z,100002.88
2023-01-20T03:12:32.269Z,100007.97
2023-01-20T03:17:35.845Z,100007.63
2023-01-20T03:22:40.021Z,100005.31
2023-01-20T03:27:43.442Z,100007.81
2023-01-20T03:32:49.285Z,100010.88
2023-01-20T03:37:53.424Z,100009.16
2023-01-20T03:43:02.832Z,100020.94
2023-01-20T03:48:14.035Z,100031.94
2023-01-20T03:53:28.884Z,100029.16
2023-01-20T03:58:36.251Z,100036.03
2023-01-20T04:03:41.212Z,100038.34
2023-01-20T04:08:49.104Z,100047.88
2023-01-20T04:13:52.228Z,100046.91
2023-01-20T04:18:55.383Z,100054.59
2023-01-20T04:24:04.566Z,100049.06
2023-01-20T04:29:12.669Z,100058.78
2023-01-20T04:34:16.396Z,100071.13
2023-01-20T04:39:20.533Z,100063.72
2023-01-20T04:44:23.362Z,100067.94
2023-01-20T04:49:26.111Z,100070.66
2023-01-20T04:54:30.342Z,100073.44
2023-01-20T04:59:33.139Z,100066.63
2023-01-20T05:04:37.888Z,100072.56
2023-01-20T05:09:42.043Z,100076.19
2023-01-20T05:14:44.823Z,100080.22
2023-01-20T05:19:47.668Z,100082.22
2023-01-20T05:24:51.793Z,100096.56
2023-01-20T05:29:54.689Z,100096.56
2023-01-20T05:34:57.453Z,100105.34
2023-01-20T05:40:01.634Z,100101.97
2023-01-20T05:45:05.020Z,100112.75
2023-01-20T05:50:11.356Z,100115.06
2023-01-20T05:55:15.955Z,100107.59
2023-01-20T06:00:20.031Z,100112.34
2023-01-20T06:05:23.181Z,100116.50
2023-01-20T06:10:28.097Z,100124.56
2023-01-20T06:15:30.863Z,100130.19
2023-01-20T06:20:33.602Z,100149.44
2023-01-20T06:25:37.817Z,100132.97
2023-01-20T06:30:43.091Z,100144.72
2023-01-20T06:35:45.905Z,100149.50
2023-01-20T06:40:50.025Z,100152.69
2023-01-20T06:45:52.780Z,100160.91
2023-01-20T06:50:55.673Z,100172.06
2023-01-20T06:56:01.287Z,100163.69
2023-01-20T07:01:09.767Z,100167.56
2023-01-20T07:06:18.167Z,100193.41
2023-01-20T07:11:22.406Z,100187.41
2023-01-20T07:16:25.534Z,100193.00
2023-01-20T07:21:29.027Z,100198.97
2023-01-20T07:26:33.525Z,100211.63
2023-01-20T07:31:36.501Z,100223.59
2023-01-20T07:36:39.247Z,100223.69
2023-01-20T07:41:45.549Z,100235.31
2023-01-20T07:46:48.658Z,100243.47
2023-01-20T07:51:51.413Z,100240.47
2023-01-20T07:56:55.625Z,100255.34
2023-01-20T08:01:58.373Z,100263.06
2023-01-20T08:07:01.137Z,100271.69
2023-01-20T08:12:05.905Z,100278.94
2023-01-20T08:17:08.853Z,100288.06
2023-01-20T08:22:11.653Z,100294.97
2023-01-20T08:27:15.858Z,100300.00
2023-01-20T08:32:18.669Z,100303.91
2023-01-20T08:37:21.629Z,100317.41
2023-01-20T08:42:25.730Z,100320.75
2023-01-20T08:47:28.613Z,100327.66
2023-01-20T08:52:31.470Z,100329.63
2023-01-20T08:57:35.593Z,100334.41
2023-01-20T09:02:38.987Z,100334.16
2023-01-20T09:07:41.781Z,100331.41
2023-01-20T09:12:46.459Z,100332.75
2023-01-20T09:17:49.375Z,100335.53
2023-01-20T09:22:52.193Z,100336.63
2023-01-20T09:27:56.410Z,100342.94
2023-01-20T09:33:00.135Z,100346.88
2023-01-20T09:38:20.555Z,100340.59
2023-01-20T09:43:51.792Z,100353.06
2023-01-20T09:49:21.002Z,100356.16
2023-01-20T09:54:27.414Z,100361.38
2023-01-20T09:59:41.161Z,100366.38
2023-01-20T10:04:49.693Z,100357.25
2023-01-20T10:09:59.500Z,100365.59
2023-01-20T10:15:08.971Z,100371.19
2023-01-20T10:20:22.613Z,100372.88
2023-01-20T10:25:30.209Z,100378.91
2023-01-20T10:30:37.790Z,100382.59
2023-01-20T10:35:44.306Z,100380.16
2023-01-20T10:40:53.512Z,100387.03
2023-01-20T10:46:12.575Z,100388.03
2023-01-20T10:51:25.767Z,100384.41
2023-01-20T10:56:37.319Z,100377.22
2023-01-20T11:01:42.575Z,100379.13
2023-01-20T11:06:46.679Z,100380.00
2023-01-20T11:11:49.512Z,100388.50
2023-01-20T11:17:00.942Z,100382.34
2023-01-20T11:22:11.963Z,100392.72
2023-01-20T11:27:17.882Z,100391.00
2023-01-20T11:32:42.900Z,100407.94
2023-01-20T11:37:45.774Z,100419.50
2023-01-20T11:42:49.898Z,100409.63
2023-01-20T11:48:03.834Z,100428.38
2023-01-20T11:53:17.744Z,100425.31
2023-01-20T11:58:22.464Z,100427.09
2023-01-20T12:03:52.087Z,100432.41
2023-01-20T12:09:00.613Z,100435.00
2023-01-20T12:14:28.554Z,100435.22
2023-01-20T12:19:38.619Z,100446.84
2023-01-20T12:25:05.323Z,100452.19
2023-01-20T12:30:23.205Z,100447.25
2023-01-20T12:35:35.078Z,100454.09
2023-01-20T12:40:47.629Z,100462.88
2023-01-20T12:45:57.872Z,100463.84
2023-01-20T12:51:17.240Z,100480.97
2023-01-20T12:56:30.107Z,100470.22
2023-01-20T13:01:43.907Z,100482.50
2023-01-20T13:07:04.229Z,100479.50
2023-01-20T13:12:25.632Z,100482.22
2023-01-20T13:17:36.050Z,100494.88
2023-01-20T13:22:40.281Z,100495.00
2023-01-20T13:27:45.021Z,100508.94
2023-01-20T13:32:49.068Z,100510.44
2023-01-20T13:37:56.351Z,100521.31
2023-01-20T13:42:59.345Z,100530.66
2023-01-20T13:48:18.003Z,100533.06
2023-01-20T13:53:29.772Z,100544.59
2023-01-20T13:58:44.211Z,100546.91
2023-01-20T14:04:02.571Z,100551.66
2023-01-20T14:09:19.793Z,100558.66
2023-01-20T14:14:24.985Z,100566.75
2023-01-20T14:19:32.427Z,100569.00
2023-01-20T14:24:38.440Z,100574.69
2023-01-20T14:29:41.209Z,100580.06
2023-01-20T14:34:44.659Z,100586.25
2023-01-20T14:39:51.552Z,100586.25
2023-01-20T14:44:56.587Z,100594.56
2023-01-20T14:49:59.469Z,100593.34
2023-01-20T14:55:03.672Z,100609.28
2023-01-20T15:00:20.446Z,100625.81
2023-01-20T15:05:28.383Z,100624.03
2023-01-20T15:10:32.665Z,100628.91
2023-01-20T15:21:23.055Z,100645.31
2023-01-20T15:26:29.585Z,100652.00
2023-01-20T15:31:32.392Z,100659.75
2023-01-20T15:36:36.913Z,100662.47
2023-01-20T15:41:41.316Z,100677.75
2023-01-20T15:46:44.080Z,100677.06
2023-01-20T15:51:47.356Z,100677.44
2023-01-20T15:56:51.482Z,100693.38
2023-01-20T16:01:54.273Z,100700.75
2023-01-20T16:06:57.005Z,100709.28
2023-01-20T16:12:01.082Z,100719.66
2023-01-20T16:17:03.877Z,100741.41
2023-01-20T16:22:08.602Z,100754.66
2023-01-20T16:27:19.260Z,100764.38
2023-01-20T16:32:24.053Z,100770.03
2023-01-20T16:37:26.851Z,100786.75
2023-01-20T16:42:31.011Z,100789.34
2023-01-20T16:47:33.866Z,100803.44
2023-01-20T16:52:36.636Z,100806.78
2023-01-20T16:57:40.810Z,100811.22
2023-01-20T17:02:45.565Z,100819.16
2023-01-20T17:07:48.314Z,100830.47
2023-01-20T17:12:54.598Z,100830.63
2023-01-20T17:17:59.825Z,100846.78
2023-01-20T17:23:03.192Z,100855.09
2023-01-20T17:28:07.394Z,100861.41
2023-01-20T17:33:10.142Z,100868.41
2023-01-20T17:38:12.969Z,100872.75
2023-01-20T17:43:17.200Z,100883.88
2023-01-20T17:48:20.025Z,100894.84
2023-01-20T17:53:22.852Z,100893.34
2023-01-20T17:58:27.019Z,100905.19
2023-01-20T18:03:29.764Z,100915.88
2023-01-20T18:08:32.620Z,100925.00
2023-01-20T18:13:37.064Z,100927.75
2023-01-20T18:18:40.196Z,100940.94
2023-01-20T18:23:43.778Z,100948.19
2023-01-20T18:28:47.970Z,100965.06
2023-01-20T18:33:52.234Z,100961.75
2023-01-20T18:38:57.078Z,100973.44
2023-01-20T18:44:01.284Z,100976.03
2023-01-20T18:49:05.164Z,100984.09
2023-01-20T18:54:10.367Z,100990.34
2023-01-20T18:59:15.553Z,101000.13
2023-01-20T19:04:18.317Z,101006.59
2023-01-20T19:09:21.166Z,101012.72
2023-01-20T19:14:25.355Z,101014.56
2023-01-20T19:19:28.044Z,101028.47
2023-01-20T19:24:30.821Z,101030.25
2023-01-20T19:29:35.019Z,101034.59
2023-01-20T19:34:39.189Z,101035.50
2023-01-20T19:39:41.979Z,101044.28
2023-01-20T19:44:46.164Z,101054.00
2023-01-20T19:49:48.943Z,101060.22
2023-01-20T19:54:52.283Z,101062.84
2023-01-20T19:59:56.430Z,101069.75
2023-01-20T20:04:59.169Z,101082.06
2023-01-20T20:10:02.031Z,101092.72
2023-01-20T20:15:07.126Z,101099.03
2023-01-20T20:20:11.303Z,101102.81
2023-01-20T20:25:14.154Z,101112.50
2023-01-20T20:30:19.206Z,101110.81
2023-01-20T20:35:22.020Z,101121.34
2023-01-20T20:40:25.221Z,101124.91
2023-01-20T20:45:29.423Z,101131.19
2023-01-20T20:50:32.510Z,101129.56
2023-01-20T20:55:35.371Z,101139.13
2023-01-20T21:00:39.612Z,101148.03
2023-01-20T21:05:46.263Z,101153.44
2023-01-20T21:10:49.106Z,101165.75
2023-01-20T21:16:01.528Z,101175.59
2023-01-20T21:21:06.392Z,101182.69
2023-01-20T21:26:12.721Z,101191.47
2023-01-20T21:31:19.124Z,101187.91
2023-01-20T21:36:23.181Z,101193.19
2023-01-20T21:41:26.082Z,101194.19
2023-01-20T21:46:31.590Z,101194.19
2023-01-20T21:51:51.909Z,101211.75
2023-01-20T21:56:54.680Z,101216.19
2023-01-20T22:01:58.905Z,101219.88
2023-01-20T22:07:01.737Z,101231.28
2023-01-20T22:12:05.033Z,101234.88
2023-01-20T22:17:11.219Z,101239.44
2023-01-20T22:22:15.298Z,101245.59
2023-01-20T22:27:18.152Z,101250.09
2023-01-20T22:32:22.260Z,101258.97
2023-01-20T22:37:25.674Z,101266.19
2023-01-20T22:42:28.542Z,101261.81
2023-01-20T22:47:32.674Z,101274.00
2023-01-20T22:52:35.455Z,101278.31
2023-01-20T22:57:38.230Z,101295.94
2023-01-20T23:02:42.381Z,101295.91
2023-01-20T23:07:45.144Z,101287.03
2023-01-20T23:12:47.909Z,101295.78
2023-01-20T23:17:52.070Z,101307.94
2023-01-20T23:22:54.942Z,101316.00
2023-01-20T23:27:57.762Z,101318.00
2023-01-20T23:33:01.939Z,101329.69
2023-01-20T23:38:04.762Z,101340.22
2023-01-20T23:43:07.525Z,101341.91
2023-01-20T23:48:11.671Z,101347.94
2023-01-20T23:53:14.500Z,101356.78
2023-01-20T23:58:17.243Z,101367.41
